Time;durP1;ratioP1;P1;durP2;ratioP2;P2;SDS_P1;SDS_P2;PMS_P1;PMS_P2;Temp;Humidity;BMP_temperature;BMP_pressure;BME280_temperature;BME280_humidity;BME280_pressure;Samples;Min_cycle;Max_cycle;Signal;HPM_P1;HPM_P2
2021/09/18 00:03:55;;;;;;;56.77;52.57;;;;;;;14.49;100.00;101488.03;1941050;74;33127;-76
2021/09/18 00:09:21;;;;;;;52.33;48.40;;;;;;;14.21;100.00;101488.27;1940820;74;32962;-71
2021/09/18 00:17:25;;;;;;;55.90;51.47;;;;;;;14.25;100.00;101485.16;2061084;69;31758;-71
2021/09/18 00:19:54;;;;;;;61.57;56.87;;;;;;;14.19;100.00;101492.50;2030359;70;26166;-71
2021/09/18 00:22:24;;;;;;;59.33;54.93;;;;;;;14.14;100.00;101489.19;2005776;71;26229;-74
2021/09/18 00:24:55;;;;;;;57.37;53.07;;;;;;;14.07;100.00;101490.94;1993587;72;26680;-75
2021/09/18 00:27:26;;;;;;;57.13;52.77;;;;;;;14.04;100.00;101487.87;1993611;72;26204;-71
2021/09/18 00:29:56;;;;;;;52.53;48.60;;;;;;;14.09;100.00;101493.41;1993443;72;26189;-74
2021/09/18 00:32:27;;;;;;;51.30;47.60;;;;;;;13.99;100.00;101492.94;1993671;72;26204;-71
2021/09/18 00:34:57;;;;;;;49.87;46.47;;;;;;;13.83;100.00;101494.75;1993569;72;26201;-74
2021/09/18 00:37:27;;;;;;;48.77;45.47;;;;;;;13.57;100.00;101499.13;1993548;72;26287;-74
2021/09/18 00:39:57;;;;;;;51.77;48.17;;;;;;;13.51;100.00;101488.30;1993579;72;26201;-74
2021/09/18 00:42:27;;;;;;;54.67;50.77;;;;;;;13.51;100.00;101486.91;1993489;72;26200;-75
2021/09/18 00:44:57;;;;;;;56.07;52.07;;;;;;;13.60;100.00;101487.97;1993591;72;26703;-74
2021/09/18 00:47:27;;;;;;;55.40;51.50;;;;;;;13.73;100.00;101489.27;1993685;72;26236;-74
2021/09/18 00:49:57;;;;;;;54.50;50.70;;;;;;;13.69;100.00;101482.04;1993513;72;26233;-74
2021/09/18 00:52:28;;;;;;;56.07;51.97;;;;;;;13.69;100.00;101483.44;1993665;72;26499;-71
2021/09/18 00:54:58;;;;;;;59.07;54.43;;;;;;;13.65;100.00;101490.13;1993551;72;26773;-74
2021/09/18 00:57:30;;;;;;;58.33;53.90;;;;;;;13.75;100.00;101484.20;1993452;72;26698;-74
2021/09/18 01:00:02;;;;;;;55.70;51.70;;;;;;;13.79;100.00;101486.12;1993617;72;26209;-74
2021/09/18 01:02:33;;;;;;;53.30;49.30;;;;;;;13.76;100.00;101488.67;1993631;72;26298;-71
2021/09/18 01:07:59;;;;;;;54.37;50.07;;;;;;;13.96;100.00;101473.14;1941002;74;33030;-76
2021/09/18 01:13:26;;;;;;;59.30;54.90;;;;;;;13.82;100.00;101479.15;1941112;74;34299;-73
2021/09/18 01:18:51;;;;;;;55.63;51.70;;;;;;;13.60;100.00;101478.19;1940825;74;33076;-75
2021/09/18 01:24:16;;;;;;;55.27;51.03;;;;;;;13.79;100.00;101478.31;1941116;74;33428;-74
2021/09/18 01:29:44;;;;;;;58.77;54.13;;;;;;;13.67;100.00;101495.44;1940829;74;33130;-70
2021/09/18 01:35:12;;;;;;;58.07;53.70;;;;;;;13.54;100.00;101492.73;1940959;74;33441;-74
2021/09/18 01:40:40;;;;;;;56.63;52.17;;;;;;;13.64;100.00;101484.30;1941071;74;33438;-74
2021/09/18 01:46:05;;;;;;;53.67;49.47;;;;;;;13.65;100.00;101492.09;1940820;74;32967;-70
2021/09/18 01:51:57;;;;;;;50.73;46.93;;;;;;;13.38;100.00;101486.98;1995190;71;32846;-74
2021/09/18 01:57:22;;;;;;;54.27;50.17;;;;;;;13.35;100.00;101488.94;1940848;74;33035;-70
2021/09/18 02:02:53;;;;;;;57.33;52.83;;;;;;;13.52;100.00;101488.58;1940898;74;32948;-74
2021/09/18 02:08:38;;;;;;;62.83;57.93;;;;;;;13.54;100.00;101490.50;2016437;71;33315;-72
2021/09/18 02:14:09;;;;;;;52.47;48.60;;;;;;;13.65;100.00;101473.94;1940913;74;33444;-74
2021/09/18 02:19:39;;;;;;;52.93;48.93;;;;;;;13.15;100.00;101482.92;1941008;74;33065;-71
2021/09/18 02:25:06;;;;;;;51.87;48.33;;;;;;;12.83;100.00;101474.14;1940904;74;32986;-74
2021/09/18 02:30:50;;;;;;;48.33;45.03;;;;;;;12.69;100.00;101476.69;2009694;71;32826;-73
2021/09/18 02:36:14;;;;;;;50.97;47.57;;;;;;;13.09;100.00;101472.88;1940844;74;32989;-74
2021/09/18 02:41:41;;;;;;;49.67;46.30;;;;;;;13.33;100.00;101470.83;1940888;74;33138;-74
2021/09/18 02:47:06;;;;;;;49.23;45.80;;;;;;;13.32;100.00;101464.97;1940953;74;33079;-70
2021/09/18 02:52:30;;;;;;;55.33;51.33;;;;;;;13.69;100.00;101459.11;1940999;74;33499;-74
2021/09/18 02:57:54;;;;;;;62.00;57.20;;;;;;;13.52;100.00;101456.48;1940976;74;33425;-70
2021/09/18 03:03:19;;;;;;;53.53;49.90;;;;;;;13.63;100.00;101454.72;1940812;74;33026;-71
2021/09/18 03:08:43;;;;;;;53.17;49.63;;;;;;;13.94;100.00;101455.30;1940730;74;33036;-70
2021/09/18 03:14:09;;;;;;;53.83;49.80;;;;;;;13.47;100.00;101456.52;1940848;74;33079;-70
2021/09/18 03:19:33;;;;;;;52.13;48.53;;;;;;;13.62;100.00;101454.44;1940979;74;32971;-74
2021/09/18 03:24:58;;;;;;;52.10;48.30;;;;;;;13.66;100.00;101454.13;1940868;74;32978;-74
2021/09/18 03:30:22;;;;;;;54.60;50.40;;;;;;;13.98;100.00;101447.16;1940860;74;33053;-70
2021/09/18 03:35:46;;;;;;;53.00;49.00;;;;;;;13.87;100.00;101452.55;1940829;74;32979;-70
2021/09/18 03:41:11;;;;;;;54.73;50.17;;;;;;;14.14;100.00;101452.86;1940957;74;33060;-70
2021/09/18 03:46:35;;;;;;;54.10;49.80;;;;;;;14.18;100.00;101446.12;1940886;74;32967;-74
2021/09/18 03:52:00;;;;;;;51.03;47.03;;;;;;;14.07;100.00;101460.20;1940993;74;33039;-73
2021/09/18 03:57:24;;;;;;;52.73;48.73;;;;;;;14.26;100.00;101452.45;1941000;74;32975;-70
2021/09/18 04:02:48;;;;;;;53.63;49.43;;;;;;;14.20;100.00;101458.69;1877933;76;33130;-71
2021/09/18 04:08:13;;;;;;;52.93;48.73;;;;;;;14.37;100.00;101458.27;1940861;74;33058;-70
2021/09/18 04:13:38;;;;;;;53.07;48.90;;;;;;;14.32;100.00;101457.72;1941026;74;33421;-74
2021/09/18 04:19:05;;;;;;;52.57;48.40;;;;;;;14.48;100.00;101459.24;1940939;74;33494;-74
2021/09/18 04:24:29;;;;;;;56.87;52.13;;;;;;;14.46;100.00;101462.88;1941007;74;33483;-74
2021/09/18 04:29:53;;;;;;;56.80;52.40;;;;;;;14.45;100.00;101448.66;1940987;74;33626;-74
2021/09/18 04:35:18;;;;;;;57.30;52.50;;;;;;;14.25;100.00;101455.81;1940830;74;32970;-74
2021/09/18 04:40:43;;;;;;;57.40;52.90;;;;;;;14.34;100.00;101451.25;1940843;74;33038;-71
2021/09/18 04:46:07;;;;;;;59.10;54.40;;;;;;;14.31;100.00;101456.05;1940854;74;33014;-73
2021/09/18 04:51:32;;;;;;;61.20;56.23;;;;;;;14.53;100.00;101466.73;1941080;74;32961;-74
2021/09/18 04:56:56;;;;;;;59.43;54.50;;;;;;;14.56;100.00;101460.55;1940856;74;33013;-74
2021/09/18 05:02:21;;;;;;;63.50;58.20;;;;;;;14.61;100.00;101463.85;1940958;74;32954;-70
2021/09/18 05:07:45;;;;;;;61.57;56.43;;;;;;;14.46;100.00;101462.88;1941039;74;33441;-74
2021/09/18 05:13:10;;;;;;;62.13;56.87;;;;;;;14.48;100.00;101470.98;1941082;74;33513;-71
2021/09/18 05:18:54;;;;;;;63.90;58.40;;;;;;;14.48;100.00;101464.83;2009700;71;32915;-72
2021/09/18 05:24:18;;;;;;;66.00;60.30;;;;;;;14.44;100.00;101467.12;1941120;74;33485;-71
2021/09/18 05:29:44;;;;;;;67.50;61.80;;;;;;;14.49;100.00;101467.91;1941040;74;34184;-71
2021/09/18 05:35:10;;;;;;;66.07;60.03;;;;;;;14.31;100.00;101467.78;1940920;74;33064;-70
2021/09/18 05:40:35;;;;;;;63.90;58.10;;;;;;;14.30;100.00;101483.71;1940992;74;33577;-75
2021/09/18 05:45:59;;;;;;;67.40;61.67;;;;;;;14.27;100.00;101480.68;1940655;74;33588;-75
2021/09/18 05:51:23;;;;;;;65.87;60.13;;;;;;;14.24;100.00;101480.72;1940663;74;33068;-71
2021/09/18 05:56:48;;;;;;;64.10;58.67;;;;;;;14.21;100.00;101490.23;1940702;74;33432;-71
2021/09/18 06:02:12;;;;;;;63.27;57.90;;;;;;;14.27;100.00;101487.66;1940933;74;33512;-72
2021/09/18 06:07:41;;;;;;;65.10;59.60;;;;;;;14.23;100.00;101498.60;1940847;74;32963;-75
2021/09/18 06:13:07;;;;;;;66.60;61.00;;;;;;;14.13;100.00;101500.08;1940806;74;33101;-77
2021/09/18 06:18:32;;;;;;;65.57;60.13;;;;;;;14.15;100.00;101493.66;1940947;74;33030;-79
2021/09/18 06:23:57;;;;;;;67.70;61.97;;;;;;;14.23;100.00;101497.20;1940971;74;33006;-79
2021/09/18 06:29:23;;;;;;;68.67;62.87;;;;;;;14.17;100.00;101492.78;1940833;74;33091;-74
2021/09/18 06:34:57;;;;;;;69.67;63.63;;;;;;;14.16;100.00;101503.71;1940884;74;33685;-74
2021/09/18 06:40:26;;;;;;;63.40;57.93;;;;;;;14.27;100.00;101515.05;1940723;74;32995;-70
2021/09/18 06:45:51;;;;;;;72.47;66.33;;;;;;;14.57;100.00;101531.55;1940726;74;33041;-74
2021/09/18 06:51:16;;;;;;;69.80;63.77;;;;;;;14.75;100.00;101524.38;1940813;74;32986;-74
2021/09/18 06:56:41;;;;;;;71.03;64.80;;;;;;;14.70;100.00;101523.03;1940995;74;33543;-71
2021/09/18 07:02:05;;;;;;;70.43;64.20;;;;;;;14.74;100.00;101520.47;1941123;74;33528;-71
2021/09/18 07:07:30;;;;;;;67.07;61.07;;;;;;;14.94;100.00;101523.86;1940893;74;33065;-71
2021/09/18 07:12:55;;;;;;;75.37;68.17;;;;;;;15.25;100.00;101522.08;1940914;74;33084;-74
2021/09/18 07:18:19;;;;;;;77.33;70.73;;;;;;;15.31;100.00;101534.88;1940934;74;33515;-72
2021/09/18 07:23:45;;;;;;;73.87;67.07;;;;;;;15.52;100.00;101525.10;1940845;74;32976;-75
2021/09/18 07:29:09;;;;;;;76.93;69.57;;;;;;;15.54;100.00;101524.77;1941023;74;33448;-71
2021/09/18 07:34:35;;;;;;;75.30;68.63;;;;;;;15.63;100.00;101527.17;1940767;74;31029;-71
2021/09/18 07:40:00;;;;;;;77.17;70.23;;;;;;;15.71;100.00;101524.52;1940812;74;33107;-71
2021/09/18 07:45:24;;;;;;;75.00;67.93;;;;;;;16.13;100.00;101522.16;1941031;74;33517;-75
2021/09/18 07:50:49;;;;;;;76.93;69.83;;;;;;;16.37;100.00;101530.45;1940943;74;31055;-83
2021/09/18 07:56:13;;;;;;;75.00;68.47;;;;;;;16.60;100.00;101534.28;1941006;74;33553;-77
2021/09/18 08:01:38;;;;;;;84.13;76.50;;;;;;;16.88;100.00;101526.14;1941010;74;31573;-74
2021/09/18 08:07:03;;;;;;;78.30;71.47;;;;;;;17.46;100.00;101522.64;1940897;74;31036;-77
2021/09/18 08:12:29;;;;;;;76.37;69.17;;;;;;;17.10;100.00;101484.14;1940825;74;31624;-73
2021/09/18 08:17:54;;;;;;;85.27;77.37;;;;;;;17.72;100.00;101529.38;1940888;74;31042;-73
2021/09/18 08:23:19;;;;;;;79.80;72.57;;;;;;;18.09;100.00;101536.66;1943004;74;31524;-75
2021/09/18 08:28:43;;;;;;;72.80;66.10;;;;;;;18.09;100.00;101543.12;1940876;74;31168;-78
2021/09/18 08:34:08;;;;;;;69.47;63.77;;;;;;;18.07;100.00;101543.16;1941097;74;31558;-73
2021/09/18 08:39:35;;;;;;;65.33;59.73;;;;;;;18.19;100.00;101536.38;1941004;74;31624;-75
2021/09/18 08:45:06;;;;;;;63.50;58.30;;;;;;;18.12;100.00;101530.39;1941051;74;31178;-77
2021/09/18 08:50:32;;;;;;;62.60;57.30;;;;;;;18.39;100.00;101521.82;1940871;74;31106;-75
2021/09/18 08:55:58;;;;;;;57.30;52.47;;;;;;;18.63;100.00;101511.05;1941008;74;31581;-77
2021/09/18 09:01:23;;;;;;;57.30;52.87;;;;;;;18.93;100.00;101499.52;1940811;74;31122;-74
2021/09/18 09:06:53;;;;;;;54.03;49.83;;;;;;;19.04;100.00;101500.03;1941018;74;31132;-70
2021/09/18 09:12:28;;;;;;;56.00;51.97;;;;;;;19.23;100.00;101493.55;1940831;74;31040;-70
2021/09/18 09:18:20;;;;;;;58.63;54.20;;;;;;;19.26;100.00;101492.05;1940767;74;31116;-70
2021/09/18 09:24:10;;;;;;;47.47;43.87;;;;;;;19.45;100.00;101495.45;1940959;74;33512;-70
2021/09/18 09:29:47;;;;;;;59.00;54.90;;;;;;;19.44;100.00;101486.73;1940988;74;31556;-73
2021/09/18 09:35:30;;;;;;;56.17;52.43;;;;;;;19.72;100.00;101479.65;1940849;74;31022;-73
2021/09/18 09:40:54;;;;;;;60.73;56.83;;;;;;;19.75;100.00;101483.20;1940831;74;31044;-70
2021/09/18 09:46:18;;;;;;;57.87;53.97;;;;;;;19.90;100.00;101481.28;1941125;74;31656;-70
2021/09/18 09:51:44;;;;;;;46.90;43.60;;;;;;;19.94;100.00;101477.20;1940958;74;33550;-71
2021/09/18 09:57:20;;;;;;;45.77;42.57;;;;;;;20.07;100.00;101471.16;1940839;74;31061;-71
2021/09/18 10:02:47;;;;;;;45.50;42.30;;;;;;;20.23;100.00;101475.11;1940829;74;31048;-71
2021/09/18 10:08:14;;;;;;;45.67;42.67;;;;;;;20.32;100.00;101468.91;1940948;74;31279;-70
2021/09/18 10:13:41;;;;;;;45.37;42.33;;;;;;;20.28;100.00;101466.48;1940847;74;31110;-73
2021/09/18 10:19:08;;;;;;;47.30;44.23;;;;;;;20.42;100.00;101458.06;1940781;74;31147;-70
2021/09/18 10:24:36;;;;;;;45.50;42.43;;;;;;;20.51;100.00;101448.16;1941035;74;31071;-73
2021/09/18 10:30:32;;;;;;;44.10;41.30;;;;;;;20.75;100.00;101456.05;1940849;74;31144;-70
2021/09/18 10:35:58;;;;;;;41.50;38.97;;;;;;;20.76;100.00;101451.45;1940875;74;31068;-73
2021/09/18 10:41:25;;;;;;;39.27;36.93;;;;;;;20.63;100.00;101443.20;1940897;74;31046;-70
2021/09/18 10:46:55;;;;;;;37.47;35.20;;;;;;;20.78;100.00;101442.07;1941016;74;31623;-69
2021/09/18 10:52:35;;;;;;;38.47;36.17;;;;;;;21.04;100.00;101436.28;1941179;74;31214;-70
2021/09/18 10:58:11;;;;;;;33.40;31.30;;;;;;;21.53;100.00;101431.78;1941074;74;31006;-70
2021/09/18 11:03:46;;;;;;;36.68;34.65;;;;;;;21.27;100.00;101429.74;1940918;74;31107;-70
2021/09/18 11:09:49;;;;;;;33.23;31.43;;;;;;;21.53;100.00;101420.48;1940982;74;31102;-70
2021/09/18 11:15:15;;;;;;;34.67;32.80;;;;;;;21.78;100.00;101410.10;1940846;74;31092;-72
2021/09/18 11:20:41;;;;;;;31.02;29.37;;;;;;;21.76;100.00;101414.72;1941030;74;31076;-72
2021/09/18 11:26:54;;;;;;;32.20;30.50;;;;;;;21.71;100.00;101419.16;1941016;74;31577;-71
2021/09/18 11:32:26;;;;;;;31.12;29.52;;;;;;;21.69;100.00;101405.94;1941053;74;31500;-73
2021/09/18 11:37:52;;;;;;;31.57;30.08;;;;;;;21.75;100.00;101407.98;1941063;74;31540;-70
2021/09/18 11:43:16;;;;;;;33.83;32.13;;;;;;;21.72;100.00;101400.20;1940857;74;31157;-70
2021/09/18 11:48:41;;;;;;;34.03;32.33;;;;;;;21.62;100.00;101402.03;1941082;74;31099;-72
2021/09/18 11:54:08;;;;;;;33.05;31.25;;;;;;;21.67;100.00;101398.99;1941133;74;31601;-73
2021/09/18 11:59:32;;;;;;;30.32;28.85;;;;;;;22.20;100.00;101390.48;1941047;74;31532;-70
2021/09/18 12:04:57;;;;;;;31.35;29.80;;;;;;;21.87;100.00;101376.91;1940855;74;31083;-71
2021/09/18 12:10:26;;;;;;;29.80;28.30;;;;;;;21.84;100.00;101376.78;1940864;74;31111;-71
2021/09/18 12:15:53;;;;;;;34.35;32.50;;;;;;;21.77;100.00;101373.95;1941065;74;31477;-70
2021/09/18 12:21:22;;;;;;;30.35;28.85;;;;;;;21.92;100.00;101360.30;1941042;74;31043;-71
2021/09/18 12:26:50;;;;;;;32.73;31.07;;;;;;;21.83;100.00;101361.81;1941035;74;31552;-71
2021/09/18 12:32:16;;;;;;;31.68;30.05;;;;;;;21.68;100.00;101369.55;1940991;74;31599;-69
2021/09/18 12:37:42;;;;;;;25.25;23.95;;;;;;;22.08;100.00;101356.48;1941015;74;31541;-73
2021/09/18 12:43:23;;;;;;;24.50;23.35;;;;;;;22.18;100.00;101340.47;1940871;74;31056;-74
2021/09/18 12:48:59;;;;;;;25.15;23.85;;;;;;;22.27;100.00;101341.78;1941034;74;31520;-73
2021/09/18 12:54:24;;;;;;;35.83;34.20;;;;;;;22.58;100.00;101335.54;1940817;74;31112;-73
2021/09/18 12:59:49;;;;;;;24.32;23.22;;;;;;;22.38;100.00;101328.80;1940988;74;31572;-75
2021/09/18 13:05:20;;;;;;;22.22;21.12;;;;;;;22.37;100.00;101330.00;1940980;74;31584;-74
2021/09/18 13:10:51;;;;;;;21.65;20.65;;;;;;;22.40;100.00;101335.53;1940829;74;31160;-69
2021/09/18 13:16:31;;;;;;;22.73;21.65;;;;;;;22.52;100.00;101324.20;1940972;74;31507;-70
2021/09/18 13:22:00;;;;;;;21.30;20.30;;;;;;;22.37;100.00;101322.92;1941021;74;31622;-70
2021/09/18 13:27:26;;;;;;;21.30;20.30;;;;;;;22.53;100.00;101329.53;1940987;74;31059;-71
2021/09/18 13:32:51;;;;;;;21.45;20.27;;;;;;;22.47;100.00;101331.52;1940868;74;31109;-75
2021/09/18 13:38:16;;;;;;;22.25;21.15;;;;;;;22.49;100.00;101330.00;1940877;74;31056;-70
2021/09/18 13:43:40;;;;;;;20.10;19.20;;;;;;;22.67;100.00;101322.92;1941098;74;31603;-74
2021/09/18 13:49:05;;;;;;;22.90;21.73;;;;;;;22.60;100.00;101317.59;1940942;74;31223;-74
2021/09/18 13:54:30;;;;;;;21.45;20.45;;;;;;;22.16;100.00;101317.96;1940885;74;31052;-74
2021/09/18 13:59:54;;;;;;;21.62;20.72;;;;;;;22.51;100.00;101309.80;1940992;74;31527;-70
2021/09/18 14:05:18;;;;;;;20.65;19.70;;;;;;;22.76;100.00;101297.91;1940892;74;31153;-74
2021/09/18 14:10:43;;;;;;;22.07;20.97;;;;;;;22.66;100.00;101301.44;1940905;74;31114;-70
2021/09/18 14:16:09;;;;;;;20.97;20.02;;;;;;;22.18;100.00;101300.86;1941012;74;31505;-70
2021/09/18 14:21:53;;;;;;;22.62;21.52;;;;;;;22.95;100.00;101293.25;2009963;71;31002;-70
2021/09/18 14:27:20;;;;;;;20.95;20.02;;;;;;;22.95;100.00;101291.84;1941023;74;31097;-75
2021/09/18 14:32:46;;;;;;;20.75;19.75;;;;;;;22.53;100.00;101290.47;1940624;74;31182;-69
2021/09/18 14:38:30;;;;;;;17.12;16.23;;;;;;;22.67;100.00;101291.77;2009437;70;31417;-73
2021/09/18 14:43:54;;;;;;;15.93;15.33;;;;;;;22.94;100.00;101284.52;1940552;74;31187;-70
2021/09/18 14:49:19;;;;;;;15.58;14.87;;;;;;;22.80;100.00;101283.27;1940562;74;31131;-70
2021/09/18 14:55:03;;;;;;;17.57;16.50;;;;;;;22.66;100.00;101283.61;2009741;70;30887;-71
2021/09/18 15:00:29;;;;;;;16.25;15.55;;;;;;;22.64;100.00;101278.88;1940624;74;31053;-74
2021/09/18 15:05:54;;;;;;;15.18;14.47;;;;;;;22.57;100.00;101280.91;1940668;74;31248;-69
2021/09/18 15:11:19;;;;;;;14.60;14.00;;;;;;;22.51;100.00;101280.91;1940709;74;31067;-75
2021/09/18 15:16:43;;;;;;;15.38;14.58;;;;;;;22.66;100.00;101273.70;1940776;74;31130;-73
2021/09/18 15:22:08;;;;;;;15.20;14.50;;;;;;;22.60;100.00;101274.53;1940624;74;31166;-70
2021/09/18 15:27:33;;;;;;;14.05;13.45;;;;;;;22.66;100.00;101279.36;1940844;74;31564;-70
2021/09/18 15:32:58;;;;;;;14.15;13.55;;;;;;;22.51;100.00;101239.02;1940989;71;31132;-74
2021/09/18 15:38:23;;;;;;;14.60;13.88;;;;;;;22.62;100.00;101273.59;1940582;74;31054;-70
2021/09/18 15:43:49;;;;;;;15.38;14.68;;;;;;;22.67;100.00;101268.28;1940572;74;31052;-72
2021/09/18 15:49:14;;;;;;;15.20;14.47;;;;;;;22.67;100.00;101271.94;1940552;74;31126;-70
2021/09/18 15:54:39;;;;;;;14.50;13.88;;;;;;;22.63;100.00;101268.77;1940607;74;31053;-68
2021/09/18 16:00:04;;;;;;;13.93;13.25;;;;;;;22.59;100.00;101269.23;1940539;74;31047;-71
2021/09/18 16:05:29;;;;;;;13.83;13.22;;;;;;;22.57;100.00;101260.27;1940618;74;31130;-70
2021/09/18 16:10:53;;;;;;;15.25;14.55;;;;;;;22.52;100.00;101261.91;1940709;74;31226;-70
2021/09/18 16:16:20;;;;;;;14.30;13.70;;;;;;;22.39;100.00;101263.94;1940752;74;31543;-68
2021/09/18 16:21:44;;;;;;;12.37;11.78;;;;;;;22.33;100.00;101265.95;1940740;74;31561;-70
2021/09/18 16:27:09;;;;;;;14.18;13.58;;;;;;;22.27;100.00;101265.95;1940641;74;31040;-70
2021/09/18 16:32:34;;;;;;;13.88;13.18;;;;;;;22.19;100.00;101271.39;1940771;74;31164;-73
2021/09/18 16:37:59;;;;;;;14.87;14.15;;;;;;;22.19;100.00;101266.31;1940723;74;31052;-68
2021/09/18 16:43:25;;;;;;;15.13;14.53;;;;;;;22.20;100.00;101275.05;1940602;74;31065;-74
2021/09/18 16:48:52;;;;;;;15.38;14.63;;;;;;;22.02;100.00;101274.44;1940507;74;31159;-69
2021/09/18 16:54:17;;;;;;;14.90;14.20;;;;;;;21.94;100.00;101269.72;1940658;74;31054;-70
2021/09/18 16:59:43;;;;;;;16.93;16.07;;;;;;;21.91;100.00;101279.44;1940693;74;31142;-68
2021/09/18 17:05:12;;;;;;;17.20;16.30;;;;;;;21.89;100.00;101275.57;1940800;74;31627;-69
2021/09/18 17:10:37;;;;;;;17.40;16.40;;;;;;;21.92;100.00;101273.47;1940537;74;31636;-73
2021/09/18 17:16:21;;;;;;;15.03;14.33;;;;;;;21.94;100.00;101283.03;2009491;71;31403;-69
2021/09/18 17:21:46;;;;;;;16.00;15.20;;;;;;;21.84;100.00;101275.80;1940695;74;31166;-67
2021/09/18 17:27:11;;;;;;;15.80;15.00;;;;;;;21.73;100.00;101281.09;1940740;74;33622;-69
2021/09/18 17:32:36;;;;;;;16.10;15.30;;;;;;;21.60;100.00;101272.34;1940694;74;31134;-71
2021/09/18 17:38:03;;;;;;;15.72;15.00;;;;;;;21.44;100.00;101272.73;1940798;74;31552;-70
2021/09/18 17:43:28;;;;;;;15.50;14.80;;;;;;;21.43;100.00;101275.34;1940787;74;31558;-68
2021/09/18 17:48:59;;;;;;;15.23;14.53;;;;;;;21.29;100.00;101264.92;1940629;74;31179;-70
2021/09/18 17:54:22;;;;;;;15.68;14.98;;;;;;;;;;1940638;74;31102;-69
2021/09/18 17:56:52;;;;;;;15.20;14.40;;;;;;;21.27;100.00;101265.84;1904673;75;24683;-73
2021/09/18 18:02:19;;;;;;;15.60;14.87;;;;;;;21.09;100.00;101261.52;1940702;74;31145;-69
2021/09/18 18:07:45;;;;;;;16.37;15.58;;;;;;;20.91;100.00;101265.08;1940817;74;31144;-68
2021/09/18 18:13:10;;;;;;;15.53;14.83;;;;;;;20.78;100.00;101270.41;1940886;74;31568;-69
2021/09/18 18:18:35;;;;;;;15.13;14.43;;;;;;;20.85;100.00;101264.45;1940760;74;31628;-69
2021/09/18 18:23:59;;;;;;;17.00;16.23;;;;;;;20.80;100.00;101270.30;1940655;74;31112;-72
2021/09/18 18:29:23;;;;;;;17.20;16.40;;;;;;;20.70;100.00;101284.02;1940736;74;31063;-68
2021/09/18 18:34:48;;;;;;;17.00;16.20;;;;;;;20.53;100.00;101279.89;1940770;74;31097;-76
2021/09/18 18:40:15;;;;;;;18.07;17.17;;;;;;;20.39;100.00;101280.14;1940645;74;31688;-74
2021/09/18 18:45:40;;;;;;;18.40;17.50;;;;;;;20.33;100.00;101287.13;1940874;74;31062;-76
2021/09/18 18:51:05;;;;;;;19.30;18.23;;;;;;;20.24;100.00;101292.78;1940712;74;31110;-68
2021/09/18 18:56:33;;;;;;;20.43;19.43;;;;;;;20.09;100.00;101299.59;1940761;74;31053;-74
2021/09/18 19:01:59;;;;;;;24.67;23.37;;;;;;;19.94;100.00;101295.33;1940666;74;31044;-74
2021/09/18 19:07:23;;;;;;;23.70;22.50;;;;;;;19.78;100.00;101303.52;1940659;74;31065;-70
2021/09/18 19:12:48;;;;;;;26.00;24.60;;;;;;;19.72;100.00;101299.23;1940926;74;31059;-74
2021/09/18 19:18:12;;;;;;;29.67;27.97;;;;;;;19.46;100.00;101307.75;1940627;74;31059;-70
2021/09/18 19:23:37;;;;;;;34.93;32.77;;;;;;;19.41;100.00;101313.52;1940769;74;31128;-79
2021/09/18 19:29:01;;;;;;;38.83;36.33;;;;;;;19.23;100.00;101316.09;1940747;74;31114;-70
2021/09/18 19:34:45;;;;;;;41.67;39.17;;;;;;;19.08;100.00;101324.45;2009470;71;30903;-70
2021/09/18 19:40:13;;;;;;;43.80;41.30;;;;;;;18.78;100.00;101321.80;1940973;74;31519;-74
2021/09/18 19:45:38;;;;;;;39.83;37.53;;;;;;;18.92;100.00;101326.69;1940722;74;31125;-70
2021/09/18 19:51:02;;;;;;;40.83;38.43;;;;;;;18.74;100.00;101325.83;1940698;74;31050;-70
2021/09/18 19:56:29;;;;;;;41.50;39.20;;;;;;;18.61;100.00;101326.22;1940777;74;31150;-69
2021/09/18 20:01:54;;;;;;;41.00;38.80;;;;;;;18.55;100.00;101321.92;1941149;74;31591;-76
2021/09/18 20:07:18;;;;;;;43.53;40.83;;;;;;;18.62;100.00;101325.64;1941091;74;31167;-76
2021/09/18 20:12:46;;;;;;;42.27;39.87;;;;;;;18.61;100.00;101316.98;1941156;74;33066;-76
2021/09/18 20:18:11;;;;;;;44.37;41.70;;;;;;;18.71;100.00;101318.63;1941042;74;31046;-76
2021/09/18 20:23:36;;;;;;;43.37;40.80;;;;;;;18.68;100.00;101320.12;1941315;74;31526;-70
2021/09/18 20:29:01;;;;;;;43.03;40.23;;;;;;;18.61;100.00;101320.59;1941036;74;31056;-76
2021/09/18 20:34:25;;;;;;;45.60;42.77;;;;;;;18.51;100.00;101320.05;1941549;74;31540;-84
2021/09/18 20:39:57;;;;;;;46.03;43.23;;;;;;;18.50;100.00;101324.02;1940876;74;31070;-74
2021/09/18 20:45:26;;;;;;;47.73;44.73;;;;;;;18.36;100.00;101324.14;1941229;74;33698;-76
2021/09/18 20:50:50;;;;;;;48.53;45.43;;;;;;;18.25;100.00;101320.55;1941294;74;31542;-70
2021/09/18 20:56:14;;;;;;;49.97;46.80;;;;;;;18.21;100.00;101327.41;1941119;74;31573;-76
2021/09/18 21:07:21;;;;;;;48.63;45.43;;;;;;;18.11;100.00;101316.44;1941158;74;31527;-80
2021/09/18 21:12:45;;;;;;;49.27;45.87;;;;;;;17.79;100.00;101320.43;1941053;74;31153;-77
2021/09/18 21:18:10;;;;;;;50.20;47.00;;;;;;;17.76;100.00;101319.65;1941051;74;31034;-71
2021/09/18 21:23:55;;;;;;;48.27;44.87;;;;;;;17.72;100.00;101322.85;2009837;71;30888;-79
2021/09/18 21:29:19;;;;;;;50.10;46.53;;;;;;;17.81;100.00;101320.09;1941008;74;31049;-70
2021/09/18 21:34:46;;;;;;;49.57;46.17;;;;;;;17.77;100.00;101320.48;1941015;74;31106;-69
2021/09/18 21:40:12;;;;;;;50.13;46.93;;;;;;;17.83;100.00;101324.26;1941195;74;31500;-76
2021/09/18 21:45:36;;;;;;;50.43;47.10;;;;;;;17.78;100.00;101320.17;1940958;74;31214;-70
2021/09/18 21:51:01;;;;;;;50.93;47.63;;;;;;;17.68;100.00;101323.24;1977623;72;31041;-71
2021/09/18 21:56:26;;;;;;;50.80;47.50;;;;;;;17.67;100.00;101327.23;1941210;74;33465;-71
2021/09/18 22:01:50;;;;;;;52.60;49.30;;;;;;;17.62;100.00;101319.76;1941070;74;31558;-75
2021/09/18 22:07:15;;;;;;;50.73;47.33;;;;;;;17.51;100.00;101324.50;1941016;74;31105;-72
2021/09/18 22:12:47;;;;;;;50.30;46.90;;;;;;;17.39;100.00;101324.27;1941217;74;31608;-74
2021/09/18 22:18:13;;;;;;;50.67;47.50;;;;;;;17.46;100.00;101328.27;1941133;74;33520;-68
2021/09/18 22:23:39;;;;;;;52.47;49.07;;;;;;;17.36;100.00;101327.72;1941138;74;31044;-80
2021/09/18 22:29:04;;;;;;;51.67;48.37;;;;;;;17.05;100.00;101335.48;1941083;74;33498;-80
2021/09/18 22:34:29;;;;;;;52.00;48.60;;;;;;;16.97;100.00;101337.64;1941285;74;31515;-78
2021/09/18 22:39:59;;;;;;;51.63;48.33;;;;;;;16.81;100.00;101334.94;1941126;74;33541;-76
2021/09/18 22:45:25;;;;;;;51.47;48.13;;;;;;;16.60;100.00;101335.94;1941205;74;33556;-77
2021/09/18 22:50:49;;;;;;;50.73;47.50;;;;;;;16.64;100.00;101338.39;1940956;74;31021;-80
2021/09/18 22:56:35;;;;;;;50.97;47.73;;;;;;;16.42;100.00;101335.47;2009690;71;30992;-71
2021/09/18 23:02:01;;;;;;;51.40;47.87;;;;;;;16.51;100.00;101332.20;1941008;74;31123;-75
2021/09/18 23:07:27;;;;;;;51.67;48.47;;;;;;;16.19;100.00;101337.34;1940912;74;31169;-73
2021/09/18 23:12:56;;;;;;;49.63;46.43;;;;;;;16.16;100.00;101333.77;1941038;74;31811;-71
2021/09/18 23:18:24;;;;;;;51.87;48.50;;;;;;;16.15;100.00;101337.70;1940895;74;31103;-75
2021/09/18 23:23:50;;;;;;;49.90;46.30;;;;;;;15.87;100.00;101338.23;1941123;74;31092;-71
2021/09/18 23:29:22;;;;;;;50.23;46.93;;;;;;;15.85;100.00;101335.48;1940818;74;33134;-75
2021/09/18 23:34:48;;;;;;;51.80;48.37;;;;;;;15.69;100.00;101337.75;1940860;74;31046;-75
2021/09/18 23:40:13;;;;;;;50.20;46.47;;;;;;;15.71;100.00;101344.42;1940813;74;33013;-74
2021/09/18 23:45:39;;;;;;;52.23;48.63;;;;;;;15.83;100.00;101351.79;1940916;74;33038;-70